sensor_id;sensor_type;location;lat;lon;timestamp;pressure;altitude;pressure_sealevel;temperature;humidity
29215;BME280;16252;49.816;7.964;2023-06-04T00:01:58;100146.53;;;19.12;32.70
29215;BME280;16252;49.816;7.964;2023-06-04T00:04:25;100168.91;;;19.22;32.72
29215;BME280;16252;49.816;7.964;2023-06-04T00:06:50;100192.28;;;19.31;32.79
29215;BME280;16252;49.816;7.964;2023-06-04T00:09:15;100155.66;;;19.11;33.07
29215;BME280;16252;49.816;7.964;2023-06-04T00:11:41;100180.94;;;19.19;33.21
29215;BME280;16252;49.816;7.964;2023-06-04T00:14:06;100159.06;;;19.04;33.35
29215;BME280;16252;49.816;7.964;2023-06-04T00:16:32;100156.31;;;18.96;33.44
29215;BME280;16252;49.816;7.964;2023-06-04T00:18:57;100183.47;;;19.13;33.62
29215;BME280;16252;49.816;7.964;2023-06-04T00:21:22;100185.16;;;19.05;33.62
29215;BME280;16252;49.816;7.964;2023-06-04T00:23:47;100117.09;;;18.58;33.70
29215;BME280;16252;49.816;7.964;2023-06-04T00:26:13;100165.97;;;18.82;33.27
29215;BME280;16252;49.816;7.964;2023-06-04T00:28:38;100151.34;;;18.67;33.52
29215;BME280;16252;49.816;7.964;2023-06-04T00:31:05;100199.19;;;18.93;33.75
29215;BME280;16252;49.816;7.964;2023-06-04T00:33:31;100143.00;;;18.52;33.26
29215;BME280;16252;49.816;7.964;2023-06-04T00:35:56;100151.81;;;18.54;33.32
29215;BME280;16252;49.816;7.964;2023-06-04T00:38:22;100142.66;;;18.47;34.03
29215;BME280;16252;49.816;7.964;2023-06-04T00:40:47;100196.94;;;18.72;33.86
29215;BME280;16252;49.816;7.964;2023-06-04T00:43:12;100195.03;;;18.64;33.61
29215;BME280;16252;49.816;7.964;2023-06-04T00:45:38;100179.56;;;18.48;33.82
29215;BME280;16252;49.816;7.964;2023-06-04T00:48:04;100162.91;;;18.35;34.16
29215;BME280;16252;49.816;7.964;2023-06-04T00:50:30;100178.84;;;18.38;33.81
29215;BME280;16252;49.816;7.964;2023-06-04T00:52:58;100197.16;;;18.44;33.87
29215;BME280;16252;49.816;7.964;2023-06-04T00:55:23;100201.22;;;18.48;34.45
29215;BME280;16252;49.816;7.964;2023-06-04T00:57:49;100165.59;;;18.27;34.18
29215;BME280;16252;49.816;7.964;2023-06-04T01:00:14;100190.00;;;18.35;34.79
29215;BME280;16252;49.816;7.964;2023-06-04T01:02:41;100184.72;;;18.25;34.43
29215;BME280;16252;49.816;7.964;2023-06-04T01:05:15;100186.09;;;18.29;34.34
29215;BME280;16252;49.816;7.964;2023-06-04T01:07:42;100177.72;;;18.14;34.12
29215;BME280;16252;49.816;7.964;2023-06-04T01:10:12;100194.00;;;18.23;34.12
29215;BME280;16252;49.816;7.964;2023-06-04T01:12:41;100203.66;;;18.25;34.74
29215;BME280;16252;49.816;7.964;2023-06-04T01:15:07;100187.50;;;18.07;34.74
29215;BME280;16252;49.816;7.964;2023-06-04T01:17:51;100190.91;;;18.09;34.29
29215;BME280;16252;49.816;7.964;2023-06-04T01:23:33;100197.34;;;18.08;34.80
29215;BME280;16252;49.816;7.964;2023-06-04T01:26:03;100181.28;;;17.81;35.74
29215;BME280;16252;49.816;7.964;2023-06-04T01:28:30;100160.97;;;17.59;35.66
29215;BME280;16252;49.816;7.964;2023-06-04T01:30:56;100200.22;;;17.63;35.82
29215;BME280;16252;49.816;7.964;2023-06-04T01:33:22;100200.00;;;17.56;35.87
29215;BME280;16252;49.816;7.964;2023-06-04T01:35:49;100179.09;;;17.40;36.24
29215;BME280;16252;49.816;7.964;2023-06-04T01:38:14;100191.06;;;17.38;36.24
29215;BME280;16252;49.816;7.964;2023-06-04T01:40:40;100143.88;;;16.96;36.25
29215;BME280;16252;49.816;7.964;2023-06-04T01:43:06;100192.06;;;17.19;36.67
29215;BME280;16252;49.816;7.964;2023-06-04T01:45:31;100170.44;;;17.01;36.76
29215;BME280;16252;49.816;7.964;2023-06-04T01:47:57;100190.53;;;16.98;36.44
29215;BME280;16252;49.816;7.964;2023-06-04T01:50:22;100189.44;;;16.91;37.00
29215;BME280;16252;49.816;7.964;2023-06-04T01:52:48;100188.84;;;16.79;36.79
29215;BME280;16252;49.816;7.964;2023-06-04T01:55:15;100163.91;;;16.58;37.02
29215;BME280;16252;49.816;7.964;2023-06-04T01:57:42;100193.56;;;16.67;37.33
29215;BME280;16252;49.816;7.964;2023-06-04T02:00:09;100185.50;;;16.58;37.37
29215;BME280;16252;49.816;7.964;2023-06-04T02:02:37;100157.75;;;16.38;37.55
29215;BME280;16252;49.816;7.964;2023-06-04T02:05:04;100170.41;;;16.37;37.51
29215;BME280;16252;49.816;7.964;2023-06-04T02:07:33;100185.88;;;16.45;37.33
29215;BME280;16252;49.816;7.964;2023-06-04T02:09:59;100191.03;;;16.38;37.47
29215;BME280;16252;49.816;7.964;2023-06-04T02:12:25;100175.75;;;16.19;37.81
29215;BME280;16252;49.816;7.964;2023-06-04T02:14:50;100174.53;;;16.14;37.90
29215;BME280;16252;49.816;7.964;2023-06-04T02:17:15;100185.84;;;16.17;37.82
29215;BME280;16252;49.816;7.964;2023-06-04T02:19:43;100169.28;;;16.02;38.20
29215;BME280;16252;49.816;7.964;2023-06-04T02:22:16;100194.41;;;16.13;38.23
29215;BME280;16252;49.816;7.964;2023-06-04T02:24:41;100184.63;;;16.02;37.96
29215;BME280;16252;49.816;7.964;2023-06-04T02:27:08;100173.59;;;15.95;38.26
29215;BME280;16252;49.816;7.964;2023-06-04T02:29:33;100188.25;;;15.93;38.16
29215;BME280;16252;49.816;7.964;2023-06-04T02:31:58;100181.03;;;15.84;38.27
29215;BME280;16252;49.816;7.964;2023-06-04T02:34:24;100178.34;;;15.74;38.34
29215;BME280;16252;49.816;7.964;2023-06-04T02:36:50;100161.59;;;15.60;38.36
29215;BME280;16252;49.816;7.964;2023-06-04T02:39:16;100193.97;;;15.80;38.23
29215;BME280;16252;49.816;7.964;2023-06-04T02:41:42;100175.94;;;15.61;38.60
29215;BME280;16252;49.816;7.964;2023-06-04T02:44:07;100150.41;;;15.46;38.66
29215;BME280;16252;49.816;7.964;2023-06-04T02:46:32;100201.47;;;15.67;38.47
29215;BME280;16252;49.816;7.964;2023-06-04T02:48:57;100193.81;;;15.62;38.70
29215;BME280;16252;49.816;7.964;2023-06-04T02:51:23;100200.50;;;15.58;39.07
29215;BME280;16252;49.816;7.964;2023-06-04T02:53:49;100193.25;;;15.49;38.72
29215;BME280;16252;49.816;7.964;2023-06-04T02:56:14;100173.28;;;15.32;38.90
29215;BME280;16252;49.816;7.964;2023-06-04T02:58:51;100180.94;;;15.36;39.18
29215;BME280;16252;49.816;7.964;2023-06-04T03:01:19;100170.03;;;15.18;39.22
29215;BME280;16252;49.816;7.964;2023-06-04T03:03:46;100183.38;;;15.20;39.30
29215;BME280;16252;49.816;7.964;2023-06-04T03:06:11;100166.19;;;15.11;39.33
29215;BME280;16252;49.816;7.964;2023-06-04T03:08:39;100166.47;;;15.08;39.20
29215;BME280;16252;49.816;7.964;2023-06-04T03:11:04;100167.06;;;15.02;39.28
29215;BME280;16252;49.816;7.964;2023-06-04T03:13:30;100176.13;;;15.11;39.37
29215;BME280;16252;49.816;7.964;2023-06-04T03:15:55;100198.09;;;15.16;39.20
29215;BME280;16252;49.816;7.964;2023-06-04T03:18:20;100176.41;;;14.98;39.38
29215;BME280;16252;49.816;7.964;2023-06-04T03:20:45;100190.72;;;14.99;39.71
29215;BME280;16252;49.816;7.964;2023-06-04T03:23:11;100161.22;;;14.78;39.64
29215;BME280;16252;49.816;7.964;2023-06-04T03:25:36;100179.66;;;14.82;39.46
29215;BME280;16252;49.816;7.964;2023-06-04T03:28:01;100152.97;;;14.60;39.64
29215;BME280;16252;49.816;7.964;2023-06-04T03:30:26;100204.75;;;14.92;39.95
29215;BME280;16252;49.816;7.964;2023-06-04T03:32:52;100201.09;;;14.84;39.86
29215;BME280;16252;49.816;7.964;2023-06-04T03:35:17;100192.97;;;14.74;39.93
29215;BME280;16252;49.816;7.964;2023-06-04T03:37:42;100217.38;;;14.82;39.67
29215;BME280;16252;49.816;7.964;2023-06-04T03:40:08;100209.56;;;14.79;40.00
29215;BME280;16252;49.816;7.964;2023-06-04T03:42:33;100198.78;;;14.69;40.19
29215;BME280;16252;49.816;7.964;2023-06-04T03:44:58;100164.81;;;14.47;39.99
29215;BME280;16252;49.816;7.964;2023-06-04T03:47:24;100191.69;;;14.59;40.26
29215;BME280;16252;49.816;7.964;2023-06-04T03:49:49;100170.91;;;14.49;40.33
29215;BME280;16252;49.816;7.964;2023-06-04T03:52:15;100176.19;;;14.51;40.39
29215;BME280;16252;49.816;7.964;2023-06-04T03:54:41;100187.13;;;14.59;40.51
29215;BME280;16252;49.816;7.964;2023-06-04T03:57:06;100187.41;;;14.56;40.53
29215;BME280;16252;49.816;7.964;2023-06-04T03:59:31;100150.03;;;14.32;40.43
29215;BME280;16252;49.816;7.964;2023-06-04T04:01:57;100194.78;;;14.54;40.29
29215;BME280;16252;49.816;7.964;2023-06-04T04:04:22;100197.63;;;14.62;40.66
29215;BME280;16252;49.816;7.964;2023-06-04T04:06:48;100111.19;;;14.15;40.76
29215;BME280;16252;49.816;7.964;2023-06-04T04:09:13;100096.00;;;14.04;40.48
29215;BME280;16252;49.816;7.964;2023-06-04T04:11:38;100171.53;;;14.53;40.63
29215;BME280;16252;49.816;7.964;2023-06-04T04:14:03;100206.56;;;14.72;40.61
29215;BME280;16252;49.816;7.964;2023-06-04T04:16:29;100204.16;;;14.69;40.72
29215;BME280;16252;49.816;7.964;2023-06-04T04:18:54;100180.03;;;14.58;40.80
29215;BME280;16252;49.816;7.964;2023-06-04T04:21:20;100215.94;;;14.78;41.25
29215;BME280;16252;49.816;7.964;2023-06-04T04:23:46;100221.31;;;14.78;41.22
29215;BME280;16252;49.816;7.964;2023-06-04T04:26:11;100226.72;;;14.78;41.24
29215;BME280;16252;49.816;7.964;2023-06-04T04:28:42;100184.00;;;14.54;41.53
29215;BME280;16252;49.816;7.964;2023-06-04T04:31:08;100223.47;;;14.74;41.67
29215;BME280;16252;49.816;7.964;2023-06-04T04:33:36;100213.22;;;14.68;41.52
29215;BME280;16252;49.816;7.964;2023-06-04T04:36:04;100194.38;;;14.59;41.63
29215;BME280;16252;49.816;7.964;2023-06-04T04:38:29;100223.88;;;14.80;42.04
29215;BME280;16252;49.816;7.964;2023-06-04T04:40:58;100171.78;;;14.50;42.10
29215;BME280;16252;49.816;7.964;2023-06-04T04:43:33;100219.25;;;14.91;41.89
29215;BME280;16252;49.816;7.964;2023-06-04T04:45:59;100225.75;;;14.89;42.12
29215;BME280;16252;49.816;7.964;2023-06-04T04:48:25;100224.47;;;14.93;42.02
29215;BME280;16252;49.816;7.964;2023-06-04T04:50:51;100217.69;;;14.89;42.42
29215;BME280;16252;49.816;7.964;2023-06-04T04:53:16;100222.09;;;15.00;42.57
29215;BME280;16252;49.816;7.964;2023-06-04T04:55:41;100203.34;;;14.98;42.32
29215;BME280;16252;49.816;7.964;2023-06-04T04:58:07;100207.06;;;15.07;42.48
29215;BME280;16252;49.816;7.964;2023-06-04T05:00:32;100186.19;;;15.09;42.39
29215;BME280;16252;49.816;7.964;2023-06-04T05:02:57;100157.00;;;14.94;42.50
29215;BME280;16252;49.816;7.964;2023-06-04T05:05:22;100195.00;;;15.21;42.78
29215;BME280;16252;49.816;7.964;2023-06-04T05:07:48;100237.97;;;15.51;42.55
29215;BME280;16252;49.816;7.964;2023-06-04T05:10:13;100234.84;;;15.56;43.35
29215;BME280;16252;49.816;7.964;2023-06-04T05:12:38;100233.13;;;15.65;42.96
29215;BME280;16252;49.816;7.964;2023-06-04T05:15:04;100240.25;;;15.75;43.38
29215;BME280;16252;49.816;7.964;2023-06-04T05:17:30;100211.84;;;15.71;43.39
29215;BME280;16252;49.816;7.964;2023-06-04T05:19:58;100219.06;;;15.90;43.48
29215;BME280;16252;49.816;7.964;2023-06-04T05:22:29;100210.81;;;15.92;43.39
29215;BME280;16252;49.816;7.964;2023-06-04T05:24:54;100213.34;;;16.03;43.43
29215;BME280;16252;49.816;7.964;2023-06-04T05:27:20;100228.59;;;16.22;43.29
29215;BME280;16252;49.816;7.964;2023-06-04T05:29:47;100228.47;;;16.23;43.13
29215;BME280;16252;49.816;7.964;2023-06-04T05:32:12;100255.38;;;16.43;43.00
29215;BME280;16252;49.816;7.964;2023-06-04T05:34:37;100251.09;;;16.50;43.27
29215;BME280;16252;49.816;7.964;2023-06-04T05:37:04;100244.41;;;16.54;43.01
29215;BME280;16252;49.816;7.964;2023-06-04T05:39:33;100243.66;;;16.62;42.97
29215;BME280;16252;49.816;7.964;2023-06-04T05:41:58;100240.94;;;16.62;42.42
29215;BME280;16252;49.816;7.964;2023-06-04T05:44:23;100246.00;;;16.75;42.20
29215;BME280;16252;49.816;7.964;2023-06-04T05:46:49;100200.78;;;16.49;41.82
29215;BME280;16252;49.816;7.964;2023-06-04T05:49:14;100232.34;;;16.76;41.91
29215;BME280;16252;49.816;7.964;2023-06-04T05:51:40;100239.56;;;16.85;41.62
29215;BME280;16252;49.816;7.964;2023-06-04T05:54:05;100241.50;;;16.93;41.14
29215;BME280;16252;49.816;7.964;2023-06-04T05:56:30;100198.38;;;16.74;41.09
29215;BME280;16252;49.816;7.964;2023-06-04T05:58:55;100210.38;;;16.89;40.43
29215;BME280;16252;49.816;7.964;2023-06-04T06:01:21;100237.38;;;17.17;40.24
29215;BME280;16252;49.816;7.964;2023-06-04T06:03:46;100256.56;;;17.31;39.96
29215;BME280;16252;49.816;7.964;2023-06-04T06:06:12;100247.16;;;17.36;39.77
29215;BME280;16252;49.816;7.964;2023-06-04T06:08:37;100225.84;;;17.32;39.83
29215;BME280;16252;49.816;7.964;2023-06-04T06:11:02;100233.56;;;17.45;39.61
29215;BME280;16252;49.816;7.964;2023-06-04T06:13:29;100239.66;;;17.65;39.62
29215;BME280;16252;49.816;7.964;2023-06-04T06:15:55;100245.81;;;17.75;39.85
29215;BME280;16252;49.816;7.964;2023-06-04T06:18:20;100263.91;;;17.93;39.34
29215;BME280;16252;49.816;7.964;2023-06-04T06:20:46;100246.44;;;17.87;39.49
29215;BME280;16252;49.816;7.964;2023-06-04T06:23:11;100275.53;;;18.11;39.24
29215;BME280;16252;49.816;7.964;2023-06-04T06:25:37;100267.78;;;18.16;39.31
29215;BME280;16252;49.816;7.964;2023-06-04T06:28:05;100258.81;;;18.16;39.18
29215;BME280;16252;49.816;7.964;2023-06-04T06:30:30;100267.34;;;18.29;39.36
29215;BME280;16252;49.816;7.964;2023-06-04T06:32:56;100269.09;;;18.38;39.41
29215;BME280;16252;49.816;7.964;2023-06-04T06:35:21;100272.47;;;18.40;39.10
29215;BME280;16252;49.816;7.964;2023-06-04T06:37:46;100267.41;;;18.46;39.04
29215;BME280;16252;49.816;7.964;2023-06-04T06:40:11;100269.84;;;18.49;39.40
29215;BME280;16252;49.816;7.964;2023-06-04T06:42:37;100272.72;;;18.55;38.85
29215;BME280;16252;49.816;7.964;2023-06-04T06:45:02;100290.06;;;18.71;38.77
29215;BME280;16252;49.816;7.964;2023-06-04T06:47:28;100284.88;;;18.77;38.52
29215;BME280;16252;49.816;7.964;2023-06-04T06:49:53;100295.13;;;18.92;38.29
29215;BME280;16252;49.816;7.964;2023-06-04T06:52:19;100265.44;;;18.90;38.21
29215;BME280;16252;49.816;7.964;2023-06-04T06:54:45;100295.88;;;19.26;37.62
29215;BME280;16252;49.816;7.964;2023-06-04T06:57:11;100289.47;;;19.36;37.05
29215;BME280;16252;49.816;7.964;2023-06-04T06:59:37;100287.63;;;19.53;36.88
29215;BME280;16252;49.816;7.964;2023-06-04T07:02:03;100289.50;;;19.60;36.95
29215;BME280;16252;49.816;7.964;2023-06-04T07:04:28;100266.78;;;19.69;36.71
29215;BME280;16252;49.816;7.964;2023-06-04T07:06:53;100270.00;;;20.06;37.08
29215;BME280;16252;49.816;7.964;2023-06-04T07:09:19;100278.38;;;20.52;37.25
29215;BME280;16252;49.816;7.964;2023-06-04T07:11:44;100274.94;;;21.06;36.69
29215;BME280;16252;49.816;7.964;2023-06-04T07:14:09;100277.41;;;21.47;36.11
29215;BME280;16252;49.816;7.964;2023-06-04T07:16:35;100269.19;;;21.78;34.86
29215;BME280;16252;49.816;7.964;2023-06-04T07:19:01;100275.56;;;22.08;34.23
29215;BME280;16252;49.816;7.964;2023-06-04T07:21:26;100275.53;;;22.31;33.67
29215;BME280;16252;49.816;7.964;2023-06-04T07:23:51;100286.41;;;22.61;33.95
29215;BME280;16252;49.816;7.964;2023-06-04T07:26:17;100288.09;;;22.91;33.62
29215;BME280;16252;49.816;7.964;2023-06-04T07:28:43;100220.47;;;22.87;33.25
29215;BME280;16252;49.816;7.964;2023-06-04T07:31:09;100289.78;;;23.65;32.73
29215;BME280;16252;49.816;7.964;2023-06-04T07:33:34;100267.78;;;23.95;32.53
29215;BME280;16252;49.816;7.964;2023-06-04T07:36:07;100271.97;;;24.47;32.40
29215;BME280;16252;49.816;7.964;2023-06-04T07:38:33;100285.72;;;25.08;32.25
29215;BME280;16252;49.816;7.964;2023-06-04T07:40:58;100273.25;;;25.67;31.91
29215;BME280;16252;49.816;7.964;2023-06-04T07:43:23;100290.31;;;26.49;31.57
29215;BME280;16252;49.816;7.964;2023-06-04T07:45:48;100276.56;;;27.14;30.62
29215;BME280;16252;49.816;7.964;2023-06-04T07:48:14;100299.34;;;27.98;29.77
29215;BME280;16252;49.816;7.964;2023-06-04T07:50:39;100281.44;;;28.76;29.37
29215;BME280;16252;49.816;7.964;2023-06-04T07:53:05;100294.19;;;29.56;29.10
29215;BME280;16252;49.816;7.964;2023-06-04T07:55:31;100272.03;;;30.16;27.50
29215;BME280;16252;49.816;7.964;2023-06-04T07:57:57;100282.78;;;30.88;26.82
29215;BME280;16252;49.816;7.964;2023-06-04T08:00:22;100279.56;;;31.49;27.10
29215;BME280;16252;49.816;7.964;2023-06-04T08:02:47;100284.28;;;32.11;26.23
29215;BME280;16252;49.816;7.964;2023-06-04T08:05:13;100292.38;;;32.73;25.87
29215;BME280;16252;49.816;7.964;2023-06-04T08:07:40;100281.44;;;33.28;24.55
29215;BME280;16252;49.816;7.964;2023-06-04T08:10:06;100277.25;;;33.79;23.99
29215;BME280;16252;49.816;7.964;2023-06-04T08:12:31;100274.25;;;34.18;23.71
29215;BME280;16252;49.816;7.964;2023-06-04T08:14:56;100290.72;;;34.72;23.22
29215;BME280;16252;49.816;7.964;2023-06-04T08:17:22;100282.81;;;35.12;22.26
29215;BME280;16252;49.816;7.964;2023-06-04T08:19:48;100280.97;;;35.53;22.17
29215;BME280;16252;49.816;7.964;2023-06-04T08:22:13;100279.63;;;35.81;21.88
29215;BME280;16252;49.816;7.964;2023-06-04T08:24:39;100286.34;;;36.16;21.58
29215;BME280;16252;49.816;7.964;2023-06-04T08:27:04;100289.63;;;36.49;20.75
29215;BME280;16252;49.816;7.964;2023-06-04T08:29:29;100288.16;;;36.77;20.86
29215;BME280;16252;49.816;7.964;2023-06-04T08:31:55;100276.38;;;36.96;20.39
29215;BME280;16252;49.816;7.964;2023-06-04T08:34:20;100285.72;;;37.25;20.08
29215;BME280;16252;49.816;7.964;2023-06-04T08:36:45;100285.84;;;37.49;19.82
29215;BME280;16252;49.816;7.964;2023-06-04T08:39:11;100298.22;;;37.78;19.64
29215;BME280;16252;49.816;7.964;2023-06-04T08:41:45;100291.09;;;37.95;20.02
29215;BME280;16252;49.816;7.964;2023-06-04T08:44:11;100306.19;;;38.29;19.42
29215;BME280;16252;49.816;7.964;2023-06-04T08:46:40;100309.53;;;38.60;19.03
29215;BME280;16252;49.816;7.964;2023-06-04T08:49:06;100298.97;;;38.76;18.97
29215;BME280;16252;49.816;7.964;2023-06-04T08:51:34;100316.41;;;39.16;18.60
29215;BME280;16252;49.816;7.964;2023-06-04T08:54:03;100313.66;;;39.35;18.71
29215;BME280;16252;49.816;7.964;2023-06-04T08:56:29;100309.41;;;39.56;18.10
29215;BME280;16252;49.816;7.964;2023-06-04T08:59:00;100328.47;;;39.92;17.97
29215;BME280;16252;49.816;7.964;2023-06-04T09:01:26;100308.41;;;40.04;17.68
29215;BME280;16252;49.816;7.964;2023-06-04T09:03:52;100328.63;;;40.34;17.42
29215;BME280;16252;49.816;7.964;2023-06-04T09:06:17;100330.72;;;40.56;16.67
29215;BME280;16252;49.816;7.964;2023-06-04T09:08:43;100338.13;;;40.79;17.09
29215;BME280;16252;49.816;7.964;2023-06-04T09:11:11;100332.44;;;40.98;16.64
29215;BME280;16252;49.816;7.964;2023-06-04T09:13:39;100331.63;;;41.11;16.26
29215;BME280;16252;49.816;7.964;2023-06-04T09:16:05;100326.94;;;41.21;15.51
29215;BME280;16252;49.816;7.964;2023-06-04T09:18:31;100331.03;;;41.37;15.98
29215;BME280;16252;49.816;7.964;2023-06-04T09:21:14;100322.81;;;41.54;16.78
29215;BME280;16252;49.816;7.964;2023-06-04T09:23:44;100332.22;;;41.72;15.80
29215;BME280;16252;49.816;7.964;2023-06-04T09:26:10;100332.34;;;41.90;15.58
29215;BME280;16252;49.816;7.964;2023-06-04T09:28:40;100326.75;;;42.12;15.76
29215;BME280;16252;49.816;7.964;2023-06-04T09:31:13;100296.00;;;42.16;15.53
29215;BME280;16252;49.816;7.964;2023-06-04T09:33:44;100320.97;;;42.40;15.46
29215;BME280;16252;49.816;7.964;2023-06-04T09:36:10;100323.53;;;42.59;14.61
29215;BME280;16252;49.816;7.964;2023-06-04T09:38:35;100308.22;;;42.74;14.41
29215;BME280;16252;49.816;7.964;2023-06-04T09:41:01;100312.44;;;42.94;14.61
29215;BME280;16252;49.816;7.964;2023-06-04T09:43:30;100304.50;;;43.04;14.73
29215;BME280;16252;49.816;7.964;2023-06-04T09:45:55;100319.50;;;43.31;14.22
29215;BME280;16252;49.816;7.964;2023-06-04T09:48:21;100316.19;;;43.46;14.32
29215;BME280;16252;49.816;7.964;2023-06-04T09:50:47;100290.00;;;43.55;14.09
29215;BME280;16252;49.816;7.964;2023-06-04T09:53:14;100309.41;;;43.82;14.28
29215;BME280;16252;49.816;7.964;2023-06-04T09:55:40;100309.75;;;43.98;13.77
29215;BME280;16252;49.816;7.964;2023-06-04T09:58:06;100313.84;;;44.18;13.61
29215;BME280;16252;49.816;7.964;2023-06-04T10:00:32;100305.50;;;44.30;13.40
29215;BME280;16252;49.816;7.964;2023-06-04T10:03:01;100319.53;;;44.56;13.69
29215;BME280;16252;49.816;7.964;2023-06-04T10:05:37;100321.47;;;44.73;13.80
29215;BME280;16252;49.816;7.964;2023-06-04T10:08:03;100314.31;;;44.85;13.26
29215;BME280;16252;49.816;7.964;2023-06-04T10:10:35;100324.44;;;45.07;13.21
29215;BME280;16252;49.816;7.964;2023-06-04T10:13:05;100309.81;;;45.13;13.10
29215;BME280;16252;49.816;7.964;2023-06-04T10:15:32;100319.69;;;45.28;12.80
29215;BME280;16252;49.816;7.964;2023-06-04T10:17:59;100306.88;;;45.31;12.51
29215;BME280;16252;49.816;7.964;2023-06-04T10:20:26;100310.72;;;45.47;12.70
29215;BME280;16252;49.816;7.964;2023-06-04T10:22:52;100302.53;;;45.54;12.50
29215;BME280;16252;49.816;7.964;2023-06-04T10:25:19;100311.59;;;45.69;11.97
29215;BME280;16252;49.816;7.964;2023-06-04T10:27:45;100317.34;;;45.72;12.03
29215;BME280;16252;49.816;7.964;2023-06-04T10:30:11;100302.19;;;45.77;12.37
29215;BME280;16252;49.816;7.964;2023-06-04T10:32:37;100310.56;;;45.85;12.37
29215;BME280;16252;49.816;7.964;2023-06-04T10:35:05;100306.00;;;45.93;12.38
29215;BME280;16252;49.816;7.964;2023-06-04T10:37:34;100302.03;;;45.94;11.86
29215;BME280;16252;49.816;7.964;2023-06-04T10:39:59;100295.69;;;45.97;11.86
29215;BME280;16252;49.816;7.964;2023-06-04T10:42:25;100306.00;;;46.14;11.41
29215;BME280;16252;49.816;7.964;2023-06-04T10:44:53;100296.44;;;46.19;11.53
29215;BME280;16252;49.816;7.964;2023-06-04T10:47:25;100315.19;;;46.23;11.43
29215;BME280;16252;49.816;7.964;2023-06-04T10:49:52;100290.63;;;46.03;11.17
29215;BME280;16252;49.816;7.964;2023-06-04T10:52:18;100301.97;;;45.82;11.26
29215;BME280;16252;49.816;7.964;2023-06-04T10:54:45;100308.47;;;45.40;11.51
29215;BME280;16252;49.816;7.964;2023-06-04T10:57:15;100298.53;;;44.84;11.34
29215;BME280;16252;49.816;7.964;2023-06-04T10:59:53;100304.38;;;44.23;11.72
29215;BME280;16252;49.816;7.964;2023-06-04T11:02:18;100307.25;;;43.53;11.54
29215;BME280;16252;49.816;7.964;2023-06-04T11:04:43;100296.63;;;42.75;11.70
29215;BME280;16252;49.816;7.964;2023-06-04T11:07:09;100290.78;;;42.00;11.73
29215;BME280;16252;49.816;7.964;2023-06-04T11:09:35;100277.31;;;41.30;12.08
29215;BME280;16252;49.816;7.964;2023-06-04T11:12:02;100305.53;;;40.83;12.46
29215;BME280;16252;49.816;7.964;2023-06-04T11:14:27;100291.25;;;40.24;12.64
29215;BME280;16252;49.816;7.964;2023-06-04T11:16:53;100271.13;;;39.71;12.71
29215;BME280;16252;49.816;7.964;2023-06-04T11:19:18;100287.91;;;39.33;12.87
29215;BME280;16252;49.816;7.964;2023-06-04T11:21:44;100282.06;;;38.86;13.53
29215;BME280;16252;49.816;7.964;2023-06-04T11:24:12;100206.19;;;38.02;14.00
29215;BME280;16252;49.816;7.964;2023-06-04T11:26:38;100297.06;;;38.18;13.51
29215;BME280;16252;49.816;7.964;2023-06-04T11:29:07;100288.34;;;37.90;13.83
29215;BME280;16252;49.816;7.964;2023-06-04T11:31:47;100284.13;;;37.59;14.43
29215;BME280;16252;49.816;7.964;2023-06-04T11:34:22;100282.88;;;37.36;14.22
29215;BME280;16252;49.816;7.964;2023-06-04T11:36:48;100269.97;;;36.95;14.46
29215;BME280;16252;49.816;7.964;2023-06-04T11:39:15;100266.97;;;36.76;14.71
29215;BME280;16252;49.816;7.964;2023-06-04T11:41:41;100272.03;;;36.59;14.55
29215;BME280;16252;49.816;7.964;2023-06-04T11:44:06;100278.50;;;36.44;15.00
29215;BME280;16252;49.816;7.964;2023-06-04T11:46:32;100273.78;;;36.24;15.10
29215;BME280;16252;49.816;7.964;2023-06-04T11:48:58;100279.06;;;36.05;14.94
29215;BME280;16252;49.816;7.964;2023-06-04T11:51:23;100274.34;;;35.90;15.23
29215;BME280;16252;49.816;7.964;2023-06-04T11:53:49;100251.78;;;35.56;15.42
29215;BME280;16252;49.816;7.964;2023-06-04T11:56:15;100267.34;;;35.52;15.04
29215;BME280;16252;49.816;7.964;2023-06-04T11:58:41;100277.63;;;35.41;15.24
29215;BME280;16252;49.816;7.964;2023-06-04T12:01:07;100265.88;;;35.13;15.43
29215;BME280;16252;49.816;7.964;2023-06-04T12:03:35;100239.34;;;34.80;15.88
29215;BME280;16252;49.816;7.964;2023-06-04T12:06:16;100269.94;;;34.90;15.46
29215;BME280;16252;49.816;7.964;2023-06-04T12:11:24;100252.78;;;34.56;15.53
29215;BME280;16252;49.816;7.964;2023-06-04T12:13:50;100241.84;;;34.29;16.04
29215;BME280;16252;49.816;7.964;2023-06-04T12:16:15;100228.91;;;34.07;16.19
29215;BME280;16252;49.816;7.964;2023-06-04T12:18:40;100244.41;;;34.03;16.12
29215;BME280;16252;49.816;7.964;2023-06-04T12:21:24;100255.31;;;34.10;16.21
29215;BME280;16252;49.816;7.964;2023-06-04T12:24:04;100219.44;;;33.66;16.45
29215;BME280;16252;49.816;7.964;2023-06-04T12:26:30;100251.16;;;33.80;16.46
29215;BME280;16252;49.816;7.964;2023-06-04T12:28:59;100220.34;;;33.50;16.22
29215;BME280;16252;49.816;7.964;2023-06-04T12:31:24;100226.13;;;33.43;16.34
29215;BME280;16252;49.816;7.964;2023-06-04T12:33:49;100253.38;;;33.51;16.46
29215;BME280;16252;49.816;7.964;2023-06-04T12:36:14;100224.25;;;33.21;16.88
29215;BME280;16252;49.816;7.964;2023-06-04T12:38:40;100203.19;;;32.98;16.83
29215;BME280;16252;49.816;7.964;2023-06-04T12:41:06;100259.22;;;33.22;16.58
29215;BME280;16252;49.816;7.964;2023-06-04T12:43:31;100230.66;;;33.00;16.85
29215;BME280;16252;49.816;7.964;2023-06-04T12:45:59;100234.44;;;32.94;16.94
29215;BME280;16252;49.816;7.964;2023-06-04T12:48:24;100236.84;;;32.85;17.14
29215;BME280;16252;49.816;7.964;2023-06-04T12:50:50;100236.16;;;32.73;16.68
29215;BME280;16252;49.816;7.964;2023-06-04T12:53:15;100227.41;;;32.59;16.66